createdAt,value
2023-03-05T00:00:09.723Z,37
2023-03-05T00:10:17.715Z,34
2023-03-05T00:20:24.224Z,38
2023-03-05T00:30:30.664Z,36
2023-03-05T00:40:35.258Z,38
2023-03-05T00:50:40.301Z,39
2023-03-05T01:00:46.033Z,38
2023-03-05T01:10:51.847Z,40
2023-03-05T01:20:58.348Z,41
2023-03-05T01:31:04.146Z,44
2023-03-05T01:41:10.421Z,43
2023-03-05T01:51:18.852Z,43
2023-03-05T02:01:25.309Z,41
2023-03-05T02:11:30.555Z,42
2023-03-05T02:21:36.517Z,42
2023-03-05T02:31:43.663Z,41
2023-03-05T02:41:49.690Z,41
2023-03-05T02:51:55.097Z,39
2023-03-05T03:02:02.066Z,39
2023-03-05T03:12:06.502Z,42
2023-03-05T03:22:13.205Z,38
2023-03-05T03:32:20.372Z,42
2023-03-05T03:42:24.289Z,38
2023-03-05T03:52:29.924Z,40
2023-03-05T04:02:35.488Z,40
2023-03-05T04:12:40.839Z,38
2023-03-05T04:22:45.997Z,38
2023-03-05T04:32:50.995Z,37
2023-03-05T04:42:55.942Z,40
2023-03-05T04:53:01.126Z,42
2023-03-05T05:03:07.137Z,43
2023-03-05T05:13:14.156Z,44
2023-03-05T05:23:18.264Z,38
2023-03-05T05:33:24.725Z,40
2023-03-05T05:43:28.548Z,40
2023-03-05T05:53:36.584Z,39
2023-03-05T06:03:41.253Z,38
2023-03-05T06:13:48.387Z,37
2023-03-05T06:23:56.102Z,38
2023-03-05T06:34:02.675Z,41
2023-03-05T06:44:08.298Z,36
2023-03-05T06:54:13.682Z,38
2023-03-05T07:04:19.032Z,41
2023-03-05T07:14:26.015Z,40
2023-03-05T07:24:30.765Z,48
2023-03-05T07:34:36.709Z,44
2023-03-05T07:44:44.681Z,69
2023-03-05T07:54:49.296Z,48
2023-03-05T08:04:56.027Z,66
2023-03-05T08:14:59.396Z,45
2023-03-05T08:25:04.459Z,39
2023-03-05T08:35:11.859Z,34
2023-03-05T08:45:17.020Z,40
2023-03-05T08:55:23.463Z,37
2023-03-05T09:05:29.016Z,25
2023-03-05T09:15:35.590Z,26
2023-03-05T09:25:40.995Z,20
2023-03-05T09:35:48.218Z,21
2023-03-05T09:45:54.196Z,22
2023-03-05T09:56:00.700Z,21
2023-03-05T10:06:06.431Z,18
2023-03-05T10:16:14.286Z,24
2023-03-05T10:26:18.786Z,19
2023-03-05T10:36:25.076Z,21
2023-03-05T10:46:30.171Z,19
2023-03-05T10:56:35.602Z,17
2023-03-05T11:06:42.086Z,20
2023-03-05T11:16:51.484Z,18
2023-03-05T11:26:54.066Z,18
2023-03-05T11:37:00.349Z,18
2023-03-05T11:47:05.939Z,18
2023-03-05T11:57:10.834Z,17
2023-03-05T12:07:13.247Z,18
2023-03-05T12:17:19.870Z,18
2023-03-05T12:27:25.213Z,16
2023-03-05T12:37:32.689Z,17
2023-03-05T12:47:40.263Z,20
2023-03-05T12:57:44.394Z,18
2023-03-05T13:07:50.509Z,18
2023-03-05T13:17:55.888Z,17
2023-03-05T13:28:00.556Z,15
2023-03-05T13:38:06.350Z,16
2023-03-05T13:48:12.918Z,17
2023-03-05T13:58:19.252Z,16
2023-03-05T14:08:26.460Z,17
2023-03-05T14:18:32.128Z,15
2023-03-05T14:28:37.318Z,19
2023-03-05T14:38:44.425Z,17
2023-03-05T14:48:49.857Z,20
2023-03-05T14:58:54.892Z,19
2023-03-05T15:09:01.367Z,24
2023-03-05T15:19:05.324Z,18
2023-03-05T15:29:10.659Z,18
2023-03-05T15:39:13.552Z,19
2023-03-05T15:49:21.477Z,16
2023-03-05T15:59:26.286Z,17
2023-03-05T16:09:32.873Z,19
2023-03-05T16:19:39.944Z,18
2023-03-05T16:29:45.109Z,18
2023-03-05T16:39:51.629Z,17
2023-03-05T16:49:55.815Z,21
2023-03-05T17:00:03.512Z,19
2023-03-05T17:10:08.980Z,23
2023-03-05T17:20:17.190Z,20
2023-03-05T17:30:23.005Z,18
2023-03-05T17:40:27.493Z,16
2023-03-05T17:50:32.782Z,16
2023-03-05T18:00:39.879Z,17
2023-03-05T18:10:45.461Z,15
2023-03-05T18:20:51.444Z,16
2023-03-05T18:30:58.413Z,40
2023-03-05T18:41:05.650Z,22
2023-03-05T18:51:08.719Z,19
2023-03-05T19:01:15.541Z,18
2023-03-05T19:11:21.371Z,23
2023-03-05T19:21:29.270Z,17
2023-03-05T19:31:34.253Z,20
2023-03-05T19:41:38.806Z,18
2023-03-05T19:51:44.398Z,25
2023-03-05T20:01:51.009Z,23
2023-03-05T20:11:58.814Z,26
2023-03-05T20:21:59.893Z,23
2023-03-05T20:32:07.079Z,21
2023-03-05T20:42:11.956Z,20
2023-03-05T20:52:18.110Z,19
2023-03-05T21:02:23.467Z,19
2023-03-05T21:12:28.302Z,22
2023-03-05T21:22:34.708Z,20
2023-03-05T21:32:38.577Z,22
2023-03-05T21:42:43.431Z,16
2023-03-05T21:52:49.386Z,21
2023-03-05T22:02:55.576Z,22
2023-03-05T22:13:01.509Z,21
2023-03-05T22:23:07.736Z,24
2023-03-05T22:33:13.528Z,20
2023-03-05T22:43:20.907Z,19
2023-03-05T22:53:25.954Z,19
2023-03-05T23:03:33.166Z,19
2023-03-05T23:13:39.431Z,20
2023-03-05T23:23:43.787Z,19
2023-03-05T23:33:48.735Z,20
2023-03-05T23:43:54.343Z,18
2023-03-05T23:53:57.493Z,19
